createdAt,value
2017-10-19T00:00:33.382Z,7.20
2017-10-19T00:03:01.765Z,7.40
2017-10-19T00:05:29.305Z,7.30
2017-10-19T00:07:57.849Z,7.50
2017-10-19T00:10:25.416Z,7.50
2017-10-19T00:12:53.018Z,7.40
2017-10-19T00:15:20.879Z,7.40
2017-10-19T00:17:49.248Z,7.50
2017-10-19T00:20:17.718Z,7.50
2017-10-19T00:22:45.298Z,7.50
2017-10-19T00:25:13.646Z,7.50
2017-10-19T00:27:41.204Z,7.40
2017-10-19T00:30:08.763Z,7.30
2017-10-19T00:32:36.303Z,7.30
2017-10-19T00:35:03.902Z,7.20
2017-10-19T00:37:31.508Z,7.20
2017-10-19T00:39:59.833Z,7.20
2017-10-19T00:42:27.441Z,7.20
2017-10-19T00:44:55.047Z,7.30
2017-10-19T00:47:22.611Z,7.30
2017-10-19T00:49:50.147Z,7.30
2017-10-19T00:52:18.934Z,7.20
2017-10-19T00:54:46.486Z,7.20
2017-10-19T00:57:14.042Z,7.30
2017-10-19T00:59:41.626Z,7.30
2017-10-19T01:02:09.203Z,7.20
2017-10-19T01:04:37.514Z,7.10
2017-10-19T01:07:05.096Z,7.10
2017-10-19T01:09:32.660Z,7.00
2017-10-19T01:12:00.221Z,6.90
2017-10-19T01:14:27.780Z,6.90
2017-10-19T01:16:55.327Z,6.90
2017-10-19T01:19:22.919Z,6.90
2017-10-19T01:21:50.486Z,7.00
2017-10-19T01:24:18.067Z,7.10
2017-10-19T01:26:45.609Z,7.20
2017-10-19T01:29:13.216Z,7.20
2017-10-19T01:31:40.842Z,7.10
2017-10-19T01:34:08.412Z,7.10
2017-10-19T01:36:36.002Z,7.00
2017-10-19T01:39:03.607Z,7.00
2017-10-19T01:41:31.247Z,7.00
2017-10-19T01:43:58.786Z,6.90
2017-10-19T01:46:26.357Z,6.90
2017-10-19T01:48:53.930Z,6.80
2017-10-19T01:51:21.536Z,6.80
2017-10-19T01:53:49.857Z,6.70
2017-10-19T01:56:17.444Z,6.70
2017-10-19T01:58:44.987Z,6.60
2017-10-19T02:01:12.557Z,6.60
2017-10-19T02:03:40.118Z,6.60
2017-10-19T02:06:07.672Z,6.60
2017-10-19T02:08:35.280Z,6.60
2017-10-19T02:11:02.863Z,6.70
2017-10-19T02:13:31.202Z,6.60
2017-10-19T02:15:58.785Z,6.60
2017-10-19T02:18:26.378Z,6.60
2017-10-19T02:20:54.718Z,6.50
2017-10-19T02:23:22.251Z,6.50
2017-10-19T02:25:49.835Z,6.50
2017-10-19T02:28:17.390Z,6.60
2017-10-19T02:30:44.991Z,6.70
2017-10-19T02:33:12.524Z,6.60
2017-10-19T02:35:40.097Z,6.50
2017-10-19T02:38:07.637Z,6.50
2017-10-19T02:40:35.191Z,6.50
2017-10-19T02:43:02.729Z,6.40
2017-10-19T02:45:31.062Z,6.40
2017-10-19T02:47:58.625Z,6.40
2017-10-19T02:50:26.199Z,6.40
2017-10-19T02:52:53.756Z,6.40
2017-10-19T02:55:21.296Z,6.40
2017-10-19T02:57:48.883Z,6.40
2017-10-19T03:00:16.465Z,6.50
2017-10-19T03:02:44.029Z,6.50
2017-10-19T03:05:11.612Z,6.60
2017-10-19T03:07:39.189Z,6.50
2017-10-19T03:10:06.752Z,6.50
2017-10-19T03:12:34.296Z,6.50
2017-10-19T03:15:01.862Z,6.50
2017-10-19T03:17:29.646Z,6.50
2017-10-19T03:19:57.246Z,6.40
2017-10-19T03:22:25.584Z,6.30
2017-10-19T03:24:53.935Z,6.30
2017-10-19T03:27:21.485Z,6.20
2017-10-19T03:29:49.067Z,6.20
2017-10-19T03:32:16.667Z,6.10
2017-10-19T03:34:44.192Z,6.10
2017-10-19T03:37:11.748Z,6.10
2017-10-19T03:39:39.324Z,6.10
2017-10-19T03:42:06.900Z,6.00
2017-10-19T03:44:34.486Z,6.10
2017-10-19T03:47:02.048Z,6.00
2017-10-19T03:49:29.623Z,6.00
2017-10-19T03:51:57.195Z,6.10
2017-10-19T03:54:24.743Z,6.10
2017-10-19T03:56:52.313Z,6.10
2017-10-19T03:59:19.868Z,6.20
2017-10-19T04:01:47.517Z,6.20
2017-10-19T04:04:15.081Z,6.20
2017-10-19T04:06:42.642Z,6.30
2017-10-19T04:09:10.226Z,6.30
2017-10-19T04:11:37.752Z,6.20
2017-10-19T04:14:05.333Z,6.20
2017-10-19T04:16:32.876Z,6.10
2017-10-19T04:19:00.447Z,6.10
2017-10-19T04:21:28.001Z,6.10
2017-10-19T04:23:55.536Z,6.10
2017-10-19T04:26:23.120Z,6.10
2017-10-19T04:28:50.701Z,6.10
2017-10-19T04:31:18.243Z,6.10
2017-10-19T04:33:46.553Z,5.80
2017-10-19T04:36:14.098Z,5.80
2017-10-19T04:38:41.638Z,5.80
2017-10-19T04:41:09.242Z,5.70
2017-10-19T04:43:36.807Z,5.70
2017-10-19T04:46:04.497Z,5.70
2017-10-19T04:48:32.084Z,5.60
2017-10-19T04:50:59.632Z,5.70
2017-10-19T04:53:27.211Z,5.70
2017-10-19T04:55:54.853Z,5.70
2017-10-19T04:58:23.648Z,5.60
2017-10-19T05:00:51.234Z,5.60
2017-10-19T05:03:18.786Z,5.60
2017-10-19T05:05:46.396Z,5.60
2017-10-19T05:08:14.716Z,5.70
2017-10-19T05:10:42.359Z,5.70
2017-10-19T05:13:10.821Z,5.70
2017-10-19T05:15:39.209Z,5.50
2017-10-19T05:18:07.565Z,5.50
2017-10-19T05:20:35.893Z,5.30
2017-10-19T05:23:03.532Z,5.30
2017-10-19T05:25:31.073Z,5.40
2017-10-19T05:27:58.641Z,5.40
2017-10-19T05:30:26.216Z,5.40
2017-10-19T05:32:54.610Z,5.40
2017-10-19T05:35:22.160Z,5.40
2017-10-19T05:37:49.720Z,5.30
2017-10-19T05:40:17.299Z,5.30
2017-10-19T05:42:45.669Z,5.40
2017-10-19T05:45:13.271Z,5.30
2017-10-19T05:47:40.873Z,5.30
2017-10-19T05:50:08.476Z,5.30
2017-10-19T05:52:37.072Z,5.30
2017-10-19T05:55:04.716Z,5.30
2017-10-19T05:57:32.286Z,5.30
2017-10-19T05:59:59.865Z,5.40
2017-10-19T06:02:27.418Z,5.40
2017-10-19T06:04:55.049Z,5.40
2017-10-19T06:07:22.621Z,5.50
2017-10-19T06:09:50.186Z,5.50
2017-10-19T06:12:18.539Z,5.60
2017-10-19T06:14:46.125Z,5.60
2017-10-19T06:17:13.705Z,5.70
2017-10-19T06:19:41.285Z,5.80
2017-10-19T06:22:09.097Z,5.80
2017-10-19T06:24:36.653Z,5.90
2017-10-19T06:27:04.394Z,6.10
2017-10-19T06:29:33.547Z,6.10
2017-10-19T06:32:01.129Z,6.20
2017-10-19T06:34:29.598Z,6.50
2017-10-19T06:36:57.473Z,6.50
2017-10-19T06:39:25.166Z,6.60
2017-10-19T06:41:53.695Z,6.70
2017-10-19T06:44:21.985Z,6.90
2017-10-19T06:46:50.286Z,6.90
2017-10-19T06:49:17.824Z,6.90
2017-10-19T06:51:55.314Z,7.00
2017-10-19T06:54:23.606Z,7.20
2017-10-19T06:56:51.165Z,7.20
2017-10-19T06:59:19.483Z,7.40
2017-10-19T07:01:47.019Z,7.40
2017-10-19T07:04:14.560Z,7.50
2017-10-19T07:06:42.154Z,7.70
2017-10-19T07:09:09.702Z,7.80
2017-10-19T07:11:37.487Z,7.90
2017-10-19T07:14:05.091Z,8.00
2017-10-19T07:16:32.647Z,8.20
2017-10-19T07:19:00.192Z,8.30
2017-10-19T07:21:27.738Z,8.50
2017-10-19T07:23:56.028Z,8.70
2017-10-19T07:26:23.618Z,8.70
2017-10-19T07:28:51.162Z,8.90
2017-10-19T07:31:18.727Z,9.10
2017-10-19T07:33:46.276Z,9.30
2017-10-19T07:36:15.658Z,9.80
2017-10-19T07:38:43.193Z,9.80
2017-10-19T07:41:10.768Z,10.30
2017-10-19T07:43:38.344Z,11.50
2017-10-19T07:46:05.921Z,13.00
2017-10-19T07:48:33.473Z,14.40
2017-10-19T07:51:02.073Z,15.30
2017-10-19T07:53:29.615Z,16.00
2017-10-19T07:55:57.185Z,17.00
2017-10-19T07:58:25.740Z,17.90
2017-10-19T08:00:53.283Z,19.00
2017-10-19T08:03:20.864Z,19.90
2017-10-19T08:05:48.403Z,20.30
2017-10-19T08:08:15.946Z,21.10
2017-10-19T08:10:44.288Z,21.90
2017-10-19T08:13:11.907Z,21.80
2017-10-19T08:15:39.463Z,22.00
2017-10-19T08:18:07.871Z,21.90
2017-10-19T08:20:36.205Z,22.60
2017-10-19T08:23:03.754Z,22.60
2017-10-19T08:25:31.339Z,23.60
2017-10-19T08:27:58.888Z,24.50
2017-10-19T08:30:27.436Z,25.10
2017-10-19T08:32:55.210Z,25.50
2017-10-19T08:35:22.723Z,25.80
2017-10-19T08:37:50.271Z,25.70
2017-10-19T08:40:17.803Z,25.40
2017-10-19T08:42:45.356Z,25.60
2017-10-19T08:45:13.664Z,27.60
2017-10-19T08:47:41.243Z,27.50
2017-10-19T08:50:08.789Z,28.40
2017-10-19T08:52:36.365Z,28.70
2017-10-19T08:55:07.774Z,28.90
2017-10-19T08:57:36.113Z,28.80
2017-10-19T09:00:03.658Z,28.80
2017-10-19T09:02:31.207Z,29.40
2017-10-19T09:04:58.792Z,29.40
2017-10-19T09:07:26.383Z,29.30
2017-10-19T09:09:53.918Z,29.60
2017-10-19T09:12:21.564Z,29.30
2017-10-19T09:14:49.165Z,28.60
2017-10-19T09:17:16.703Z,27.80
2017-10-19T09:19:44.254Z,26.50
2017-10-19T09:22:11.846Z,25.00
2017-10-19T09:24:39.388Z,24.00
2017-10-19T09:27:07.005Z,23.20
2017-10-19T09:29:34.558Z,22.70
2017-10-19T09:32:02.128Z,22.50
2017-10-19T09:34:29.734Z,22.50
2017-10-19T09:36:58.065Z,22.20
2017-10-19T09:39:25.640Z,22.20
2017-10-19T09:41:53.201Z,22.50
2017-10-19T09:44:20.757Z,23.40
2017-10-19T09:46:48.327Z,23.70
2017-10-19T09:49:15.884Z,23.60
2017-10-19T09:51:43.413Z,23.40
2017-10-19T09:54:10.957Z,23.00
2017-10-19T09:56:39.264Z,21.50
2017-10-19T09:59:06.845Z,21.50
2017-10-19T10:01:34.406Z,21.00
2017-10-19T10:04:01.973Z,20.50
2017-10-19T10:06:29.509Z,20.20
2017-10-19T10:08:57.074Z,20.10
2017-10-19T10:11:25.402Z,20.00
2017-10-19T10:13:52.962Z,19.90
2017-10-19T10:16:20.507Z,19.90
2017-10-19T10:18:48.107Z,19.80
2017-10-19T10:21:15.672Z,19.80
2017-10-19T10:23:43.211Z,20.00
2017-10-19T10:26:10.797Z,20.30
2017-10-19T10:28:38.424Z,20.50
2017-10-19T10:31:05.993Z,20.90
2017-10-19T10:33:33.519Z,21.10
2017-10-19T10:36:01.868Z,21.40
2017-10-19T10:38:29.443Z,21.30
2017-10-19T10:40:56.992Z,21.40
2017-10-19T10:43:24.543Z,21.40
2017-10-19T10:45:52.301Z,21.60
2017-10-19T10:48:19.881Z,21.80
2017-10-19T10:50:47.928Z,22.10
2017-10-19T10:53:15.541Z,22.20
2017-10-19T10:55:43.134Z,22.50
2017-10-19T10:58:10.773Z,22.40
2017-10-19T11:00:38.394Z,22.20
2017-10-19T11:03:06.785Z,21.60
2017-10-19T11:05:34.381Z,21.60
2017-10-19T11:08:01.976Z,21.70
2017-10-19T11:10:29.642Z,22.30
2017-10-19T11:12:57.307Z,23.00
2017-10-19T11:15:24.870Z,23.50
2017-10-19T11:17:52.474Z,23.60
2017-10-19T11:20:20.242Z,23.70
2017-10-19T11:22:47.804Z,24.50
2017-10-19T11:25:17.123Z,26.80
2017-10-19T11:27:44.713Z,26.80
2017-10-19T11:30:13.007Z,27.40
2017-10-19T11:32:40.830Z,26.90
2017-10-19T11:35:08.628Z,26.00
2017-10-19T11:37:37.270Z,25.40
2017-10-19T11:40:06.166Z,25.20
2017-10-19T11:42:35.326Z,25.70
2017-10-19T11:45:03.032Z,26.70
2017-10-19T11:47:32.346Z,28.10
2017-10-19T11:50:00.694Z,28.50
2017-10-19T11:52:28.296Z,28.40
2017-10-19T11:54:55.856Z,29.10
2017-10-19T11:57:24.217Z,29.40
2017-10-19T11:59:51.796Z,29.40
2017-10-19T12:02:20.264Z,27.60
2017-10-19T12:04:47.824Z,27.60
2017-10-19T12:07:15.434Z,27.00
2017-10-19T12:09:43.026Z,26.80
2017-10-19T12:12:10.584Z,26.80
2017-10-19T12:14:38.200Z,27.70
2017-10-19T12:17:05.802Z,29.20
2017-10-19T12:19:33.395Z,30.30
2017-10-19T12:22:00.981Z,30.50
2017-10-19T12:24:28.556Z,30.60
2017-10-19T12:26:56.159Z,31.10
2017-10-19T12:29:23.708Z,31.30
2017-10-19T12:31:52.061Z,32.20
2017-10-19T12:34:19.627Z,32.20
2017-10-19T12:36:47.248Z,32.30
2017-10-19T12:39:14.790Z,32.40
2017-10-19T12:41:43.111Z,32.10
2017-10-19T12:44:10.674Z,32.10
2017-10-19T12:46:38.213Z,32.20
2017-10-19T12:49:05.873Z,31.70
2017-10-19T12:51:33.511Z,31.50
2017-10-19T12:54:01.820Z,31.50
2017-10-19T12:56:30.244Z,30.60
2017-10-19T12:58:57.814Z,30.10
2017-10-19T13:01:25.444Z,29.80
2017-10-19T13:03:53.067Z,29.40
2017-10-19T13:06:20.628Z,29.20
2017-10-19T13:08:49.030Z,28.50
2017-10-19T13:11:17.399Z,28.30
2017-10-19T13:13:44.965Z,28.30
2017-10-19T13:16:12.571Z,28.50
2017-10-19T13:18:41.385Z,28.20
2017-10-19T13:21:09.150Z,28.30
2017-10-19T13:23:36.837Z,28.30
2017-10-19T13:26:04.424Z,27.60
2017-10-19T13:28:33.543Z,27.80
2017-10-19T13:31:01.123Z,27.80
2017-10-19T13:33:29.584Z,28.00
2017-10-19T13:35:57.149Z,28.00
2017-10-19T13:38:25.586Z,27.70
2017-10-19T13:40:53.107Z,27.60
2017-10-19T13:43:21.445Z,27.20
2017-10-19T13:45:49.259Z,27.20
2017-10-19T13:48:17.613Z,26.70
2017-10-19T13:50:45.212Z,26.70
2017-10-19T13:53:13.645Z,26.80
2017-10-19T13:55:42.910Z,26.70
2017-10-19T13:58:13.473Z,26.40
2017-10-19T14:00:45.601Z,26.70
2017-10-19T14:03:13.916Z,26.60
2017-10-19T14:05:41.596Z,26.60
2017-10-19T14:08:09.154Z,26.80
2017-10-19T14:10:36.840Z,26.80
2017-10-19T14:13:04.489Z,26.60
2017-10-19T14:15:33.276Z,26.20
2017-10-19T14:18:00.890Z,25.60
2017-10-19T14:20:28.610Z,24.70
2017-10-19T14:22:57.680Z,22.90
2017-10-19T14:25:26.068Z,22.40
2017-10-19T14:27:54.129Z,22.40
2017-10-19T14:30:22.481Z,21.70
2017-10-19T14:32:50.075Z,21.70
2017-10-19T14:35:18.489Z,21.00
2017-10-19T14:37:46.202Z,20.90
2017-10-19T14:40:13.763Z,20.70
2017-10-19T14:42:41.484Z,20.50
2017-10-19T14:45:10.403Z,20.10
2017-10-19T14:47:37.959Z,20.10
2017-10-19T14:50:06.048Z,20.00
2017-10-19T14:52:33.966Z,19.90
2017-10-19T14:55:03.466Z,19.70
2017-10-19T14:57:31.805Z,19.70
2017-10-19T14:59:59.502Z,19.60
2017-10-19T15:02:27.188Z,19.60
2017-10-19T15:04:55.812Z,19.50
2017-10-19T15:07:23.391Z,19.40
2017-10-19T15:09:50.988Z,19.30
2017-10-19T15:12:18.655Z,19.30
2017-10-19T15:14:47.060Z,19.10
2017-10-19T15:17:14.693Z,19.10
2017-10-19T15:19:42.306Z,19.00
2017-10-19T15:22:11.752Z,18.90
2017-10-19T15:24:39.383Z,18.90
2017-10-19T15:27:07.961Z,18.80
2017-10-19T15:29:35.669Z,18.80
2017-10-19T15:32:03.359Z,18.70
2017-10-19T15:34:30.933Z,18.60
2017-10-19T15:36:58.504Z,18.50
2017-10-19T15:39:26.897Z,18.30
2017-10-19T15:41:54.527Z,18.30
2017-10-19T15:44:22.147Z,18.20
2017-10-19T15:46:49.779Z,18.20
2017-10-19T15:49:17.464Z,18.00
2017-10-19T15:51:46.050Z,17.80
2017-10-19T15:54:13.735Z,17.80
2017-10-19T15:56:41.539Z,17.70
2017-10-19T15:59:10.101Z,17.40
2017-10-19T16:01:37.807Z,17.40
2017-10-19T16:04:06.276Z,17.10
2017-10-19T16:06:33.965Z,17.10
2017-10-19T16:09:01.662Z,17.00
2017-10-19T16:11:29.593Z,16.90
2017-10-19T16:13:57.913Z,16.70
2017-10-19T16:16:25.582Z,16.50
2017-10-19T16:18:53.310Z,16.30
2017-10-19T16:21:21.015Z,16.00
2017-10-19T16:23:48.628Z,15.90
2017-10-19T16:26:16.212Z,15.70
2017-10-19T16:28:44.072Z,15.60
2017-10-19T16:31:11.636Z,15.40
2017-10-19T16:33:39.233Z,15.30
2017-10-19T16:36:06.787Z,15.20
2017-10-19T16:38:34.494Z,15.20
2017-10-19T16:41:02.086Z,15.10
2017-10-19T16:43:29.819Z,14.90
2017-10-19T16:45:57.458Z,14.70
2017-10-19T16:48:25.210Z,14.60
2017-10-19T16:50:52.784Z,14.50
2017-10-19T16:53:20.674Z,14.30
2017-10-19T16:55:48.306Z,14.10
2017-10-19T16:58:16.009Z,13.90
2017-10-19T17:00:43.924Z,13.80
2017-10-19T17:03:12.261Z,13.30
2017-10-19T17:05:39.907Z,13.30
2017-10-19T17:10:52.559Z,13.10
2017-10-19T17:13:27.942Z,13.00
2017-10-19T17:15:56.095Z,12.90
2017-10-19T17:18:23.705Z,12.90
2017-10-19T17:20:51.330Z,12.80
2017-10-19T17:23:20.113Z,12.50
2017-10-19T17:25:47.993Z,12.40
2017-10-19T17:28:16.367Z,12.20
2017-10-19T17:30:45.049Z,12.20
2017-10-19T17:33:13.826Z,12.10
2017-10-19T17:35:42.532Z,12.00
2017-10-19T17:38:11.439Z,12.00
2017-10-19T17:40:41.256Z,11.90
2017-10-19T17:43:16.349Z,11.80
2017-10-19T17:45:46.041Z,11.70
2017-10-19T17:48:15.782Z,11.70
2017-10-19T17:50:44.533Z,11.60
2017-10-19T17:53:12.896Z,11.50
2017-10-19T17:55:40.498Z,11.50
2017-10-19T17:58:08.881Z,11.30
2017-10-19T18:00:39.366Z,11.30
2017-10-19T18:03:09.017Z,11.20
2017-10-19T18:05:37.011Z,11.10
2017-10-19T18:08:04.930Z,11.20
2017-10-19T18:10:32.665Z,11.00
2017-10-19T18:13:00.430Z,11.00
2017-10-19T18:15:28.203Z,11.00
2017-10-19T18:17:55.845Z,11.10
2017-10-19T18:20:23.673Z,11.00
2017-10-19T18:22:51.350Z,10.90
2017-10-19T18:25:19.936Z,10.70
2017-10-19T18:27:48.382Z,10.60
2017-10-19T18:30:15.966Z,10.60
2017-10-19T18:32:43.527Z,10.60
2017-10-19T18:35:11.244Z,10.60
2017-10-19T18:37:38.855Z,10.50
2017-10-19T18:40:06.940Z,10.40
2017-10-19T18:42:34.933Z,10.30
2017-10-19T18:45:03.300Z,10.10
2017-10-19T18:47:32.388Z,10.10
2017-10-19T18:50:00.080Z,10.10
2017-10-19T18:52:27.621Z,10.00
2017-10-19T18:54:55.390Z,10.00
2017-10-19T18:57:22.960Z,9.90
2017-10-19T18:59:54.152Z,9.90
2017-10-19T19:02:24.012Z,9.90
2017-10-19T19:04:54.732Z,9.80
2017-10-19T19:07:22.600Z,9.70
2017-10-19T19:09:50.151Z,9.70
2017-10-19T19:12:20.910Z,9.70
2017-10-19T19:14:50.637Z,9.60
2017-10-19T19:17:18.216Z,9.60
2017-10-19T19:19:45.927Z,9.50
2017-10-19T19:22:14.308Z,9.40
2017-10-19T19:24:42.644Z,9.40
2017-10-19T19:27:10.399Z,9.40
2017-10-19T19:29:38.133Z,9.40
2017-10-19T19:32:05.774Z,9.40
2017-10-19T19:34:33.555Z,9.30
2017-10-19T19:37:01.890Z,9.20
2017-10-19T19:39:29.906Z,9.20
2017-10-19T19:41:57.921Z,9.20
2017-10-19T19:44:26.347Z,9.10
2017-10-19T19:46:53.897Z,9.10
2017-10-19T19:49:21.569Z,9.00
2017-10-19T19:51:49.136Z,9.00
2017-10-19T19:54:16.823Z,9.00
2017-10-19T19:56:45.264Z,8.90
2017-10-19T19:59:12.860Z,8.90
2017-10-19T20:01:40.449Z,8.90
2017-10-19T20:04:10.979Z,8.80
2017-10-19T20:06:38.550Z,8.80
2017-10-19T20:09:07.867Z,8.90
2017-10-19T20:11:36.192Z,8.90
2017-10-19T20:14:03.827Z,8.90
2017-10-19T20:16:33.734Z,8.80
2017-10-19T20:19:02.063Z,8.60
2017-10-19T20:21:31.350Z,8.60
2017-10-19T20:23:59.028Z,8.70
2017-10-19T20:26:26.609Z,8.80
2017-10-19T20:28:54.170Z,8.80
2017-10-19T20:31:21.863Z,8.70
2017-10-19T20:33:53.378Z,8.60
2017-10-19T20:36:24.359Z,8.60
2017-10-19T20:38:56.337Z,8.50
2017-10-19T20:41:30.358Z,8.50
2017-10-19T20:43:58.038Z,8.50
2017-10-19T20:46:25.602Z,8.40
2017-10-19T20:48:53.215Z,8.40
2017-10-19T20:51:20.814Z,8.30
2017-10-19T20:53:49.164Z,8.30
2017-10-19T20:56:16.721Z,8.20
2017-10-19T20:58:44.281Z,8.20
2017-10-19T21:01:11.864Z,8.30
2017-10-19T21:03:39.424Z,8.20
2017-10-19T21:06:07.012Z,8.20
2017-10-19T21:08:34.629Z,8.20
2017-10-19T21:11:02.245Z,8.20
2017-10-19T21:13:30.583Z,8.10
2017-10-19T21:15:58.225Z,8.10
2017-10-19T21:18:25.833Z,8.10
2017-10-19T21:20:53.429Z,8.00
2017-10-19T21:23:22.769Z,8.00
2017-10-19T21:25:50.361Z,8.00
2017-10-19T21:28:17.953Z,7.90
2017-10-19T21:30:45.528Z,8.00
2017-10-19T21:33:13.559Z,8.00
2017-10-19T21:35:41.301Z,8.00
2017-10-19T21:38:08.883Z,7.90
2017-10-19T21:40:36.715Z,7.90
2017-10-19T21:43:04.338Z,7.90
2017-10-19T21:45:31.963Z,7.90
2017-10-19T21:47:59.531Z,7.90
2017-10-19T21:50:28.202Z,7.80
2017-10-19T21:52:55.830Z,7.90
2017-10-19T21:55:25.232Z,7.80
2017-10-19T21:57:52.806Z,7.80
2017-10-19T22:00:20.833Z,7.80
2017-10-19T22:02:48.463Z,7.80
2017-10-19T22:05:17.028Z,7.70
2017-10-19T22:07:44.723Z,7.70
2017-10-19T22:10:12.455Z,7.70
2017-10-19T22:12:40.032Z,7.80
2017-10-19T22:15:07.589Z,7.80
2017-10-19T22:17:35.167Z,7.80
2017-10-19T22:20:02.798Z,7.80
2017-10-19T22:22:30.421Z,7.80
2017-10-19T22:24:58.809Z,7.80
2017-10-19T22:27:26.377Z,7.80
2017-10-19T22:29:54.715Z,7.70
2017-10-19T22:32:23.078Z,7.70
2017-10-19T22:34:51.446Z,7.60
2017-10-19T22:37:19.005Z,7.70
2017-10-19T22:39:46.601Z,7.70
2017-10-19T22:42:14.186Z,7.70
2017-10-19T22:44:41.800Z,7.60
2017-10-19T22:47:10.158Z,7.60
2017-10-19T22:49:37.700Z,7.50
2017-10-19T22:52:05.313Z,7.50
2017-10-19T22:54:33.629Z,7.50
2017-10-19T22:57:01.261Z,7.50
2017-10-19T22:59:29.779Z,7.50
2017-10-19T23:01:57.350Z,7.40
2017-10-19T23:04:24.930Z,7.40
2017-10-19T23:06:52.573Z,7.40
2017-10-19T23:09:20.132Z,7.50
2017-10-19T23:11:47.814Z,7.50
2017-10-19T23:14:15.420Z,7.50
2017-10-19T23:16:43.807Z,7.50
2017-10-19T23:19:11.404Z,7.50
2017-10-19T23:21:38.996Z,7.60
2017-10-19T23:24:06.568Z,7.70
2017-10-19T23:26:34.128Z,7.70
2017-10-19T23:29:01.741Z,7.60
2017-10-19T23:31:29.304Z,7.60
2017-10-19T23:33:57.642Z,7.50
2017-10-19T23:36:25.212Z,7.50
2017-10-19T23:38:52.737Z,7.40
2017-10-19T23:41:20.291Z,7.40
2017-10-19T23:43:47.886Z,7.40
2017-10-19T23:46:16.470Z,7.30
2017-10-19T23:48:44.062Z,7.30
2017-10-19T23:51:11.693Z,7.20
2017-10-19T23:53:39.371Z,7.10
2017-10-19T23:56:06.937Z,7.10
2017-10-19T23:58:34.498Z,7.10
